createdAt,value
2022-09-10T00:01:49.333Z,5.12
2022-09-10T00:05:13.662Z,5.11
2022-09-10T00:08:38.631Z,5.07
2022-09-10T00:12:01.828Z,5.03
2022-09-10T00:15:24.880Z,4.96
2022-09-10T00:18:49.481Z,4.88
2022-09-10T00:22:12.751Z,4.89
2022-09-10T00:25:37.059Z,4.87
2022-09-10T00:29:01.227Z,4.81
2022-09-10T00:32:24.185Z,4.81
2022-09-10T00:35:47.869Z,4.79
2022-09-10T00:39:14.205Z,4.79
2022-09-10T00:42:38.800Z,4.76
2022-09-10T00:46:02.216Z,4.77
2022-09-10T00:49:32.736Z,4.73
2022-09-10T00:53:00.276Z,4.73
2022-09-10T00:56:23.647Z,4.73
2022-09-10T00:59:52.442Z,4.72
2022-09-10T01:03:17.659Z,4.70
2022-09-10T01:06:42.260Z,4.68
2022-09-10T01:10:10.228Z,4.64
2022-09-10T01:13:46.501Z,4.57
2022-09-10T01:17:20.069Z,4.54
2022-09-10T01:21:01.195Z,4.58
2022-09-10T01:24:54.979Z,4.53
2022-09-10T01:28:27.257Z,4.59
2022-09-10T01:31:56.264Z,4.57
2022-09-10T01:35:21.471Z,4.55
2022-09-10T01:38:45.077Z,4.46
2022-09-10T01:42:09.240Z,4.51
2022-09-10T01:45:39.297Z,4.48
2022-09-10T01:49:14.414Z,4.46
2022-09-10T01:52:45.896Z,4.45
2022-09-10T01:56:22.969Z,4.43
2022-09-10T01:59:57.185Z,4.44
2022-09-10T02:03:27.929Z,4.39
2022-09-10T02:06:53.442Z,4.41
2022-09-10T02:10:16.511Z,4.41
2022-09-10T02:13:40.592Z,4.37
2022-09-10T02:17:04.784Z,4.37
2022-09-10T02:20:31.735Z,4.36
2022-09-10T02:23:59.925Z,4.34
2022-09-10T02:27:24.210Z,4.34
2022-09-10T02:30:49.055Z,4.33
2022-09-10T02:34:12.282Z,4.32
2022-09-10T02:37:37.286Z,4.30
2022-09-10T02:41:00.040Z,4.28
2022-09-10T02:44:23.207Z,4.25
2022-09-10T02:47:46.479Z,4.22
2022-09-10T02:51:09.740Z,4.18
2022-09-10T02:54:37.004Z,4.08
2022-09-10T02:58:00.265Z,4.09
2022-09-10T03:01:24.382Z,4.06
2022-09-10T03:04:47.318Z,4.04
2022-09-10T03:08:11.095Z,4.01
2022-09-10T03:11:40.139Z,4.00
2022-09-10T03:15:02.651Z,3.99
2022-09-10T03:18:25.613Z,3.87
2022-09-10T03:21:48.672Z,3.86
2022-09-10T03:25:12.342Z,3.81
2022-09-10T03:28:38.007Z,3.81
2022-09-10T03:32:01.954Z,3.79
2022-09-10T03:35:24.914Z,3.76
2022-09-10T03:38:48.078Z,3.74
2022-09-10T03:42:11.552Z,3.61
2022-09-10T03:45:36.159Z,3.72
2022-09-10T03:49:00.115Z,3.72
2022-09-10T03:52:23.310Z,3.71
2022-09-10T03:55:46.772Z,3.72
2022-09-10T03:59:13.826Z,3.77
2022-09-10T04:02:38.315Z,3.81
2022-09-10T04:06:00.977Z,3.80
2022-09-10T04:09:24.244Z,3.78
2022-09-10T04:12:47.506Z,3.79
2022-09-10T04:16:11.098Z,3.81
2022-09-10T04:19:36.397Z,3.86
2022-09-10T04:23:01.300Z,3.91
2022-09-10T04:26:26.008Z,3.95
2022-09-10T04:29:48.761Z,4.04
2022-09-10T04:33:12.132Z,4.06
2022-09-10T04:36:36.829Z,4.14
2022-09-10T04:40:00.561Z,4.25
2022-09-10T04:43:24.488Z,4.33
2022-09-10T04:46:48.264Z,4.53
2022-09-10T04:50:11.840Z,4.71
2022-09-10T04:53:36.542Z,4.88
2022-09-10T04:56:59.295Z,5.02
2022-09-10T05:00:23.482Z,5.15
2022-09-10T05:03:46.243Z,5.27
2022-09-10T05:07:09.605Z,5.40
2022-09-10T05:10:36.256Z,5.51
2022-09-10T05:13:59.523Z,5.64
2022-09-10T05:17:22.894Z,5.74
2022-09-10T05:20:45.955Z,5.87
2022-09-10T05:24:09.325Z,6.04
2022-09-10T05:27:33.925Z,6.23
2022-09-10T05:30:56.988Z,6.39
2022-09-10T05:34:20.254Z,6.62
2022-09-10T05:37:43.315Z,6.81
2022-09-10T05:41:07.294Z,6.98
2022-09-10T05:44:31.899Z,7.20
2022-09-10T05:47:54.859Z,7.40
2022-09-10T05:51:18.325Z,7.62
2022-09-10T05:54:41.803Z,7.76
2022-09-10T05:58:04.966Z,7.96
2022-09-10T06:01:29.774Z,8.16
2022-09-10T06:04:52.621Z,8.30
2022-09-10T06:08:18.761Z,8.54
2022-09-10T06:11:45.299Z,8.72
2022-09-10T06:15:08.875Z,8.87
2022-09-10T06:18:33.575Z,9.07
2022-09-10T06:21:56.330Z,9.16
2022-09-10T06:25:19.392Z,9.29
2022-09-10T06:28:42.665Z,9.43
2022-09-10T06:32:05.933Z,9.55
2022-09-10T06:35:30.155Z,9.62
2022-09-10T06:38:58.120Z,9.69
2022-09-10T06:42:21.054Z,9.78
2022-09-10T06:45:43.842Z,9.88
2022-09-10T06:49:07.159Z,9.97
2022-09-10T06:52:32.806Z,10.02
2022-09-10T06:55:56.164Z,10.12
2022-09-10T06:59:20.050Z,10.28
2022-09-10T07:02:43.013Z,10.48
2022-09-10T07:06:07.307Z,10.68
2022-09-10T07:09:32.104Z,10.90
2022-09-10T07:12:55.165Z,11.12
2022-09-10T07:16:20.282Z,11.30
2022-09-10T07:19:43.141Z,11.52
2022-09-10T07:23:07.310Z,11.73
2022-09-10T07:26:37.167Z,11.93
2022-09-10T07:30:01.025Z,12.08
2022-09-10T07:33:24.090Z,12.30
2022-09-10T07:36:47.358Z,12.48
2022-09-10T07:40:11.364Z,12.69
2022-09-10T07:43:36.970Z,12.91
2022-09-10T07:46:59.826Z,13.01
2022-09-10T07:50:22.889Z,13.12
2022-09-10T07:53:50.608Z,13.15
2022-09-10T07:57:14.048Z,13.25
2022-09-10T08:00:38.834Z,13.28
2022-09-10T08:04:01.701Z,13.37
2022-09-10T08:07:24.562Z,13.51
2022-09-10T08:10:47.711Z,13.69
2022-09-10T08:14:11.180Z,13.87
2022-09-10T08:17:36.594Z,14.06
2022-09-10T08:21:00.885Z,14.22
2022-09-10T08:24:23.648Z,14.29
2022-09-10T08:27:46.600Z,14.40
2022-09-10T08:31:12.370Z,14.42
2022-09-10T08:34:37.538Z,14.54
2022-09-10T08:38:02.141Z,14.65
2022-09-10T08:41:33.281Z,14.91
2022-09-10T08:45:11.510Z,15.01
2022-09-10T08:48:40.289Z,15.12
2022-09-10T08:52:12.175Z,15.20
2022-09-10T08:55:42.761Z,15.22
2022-09-10T08:59:22.174Z,15.15
2022-09-10T09:02:54.678Z,15.09
2022-09-10T09:06:29.585Z,15.08
2022-09-10T09:09:54.999Z,15.20
2022-09-10T09:13:37.831Z,15.31
2022-09-10T09:17:18.199Z,15.32
2022-09-10T09:20:47.602Z,15.34
2022-09-10T09:24:24.087Z,15.32
2022-09-10T09:27:51.199Z,15.33
2022-09-10T09:31:17.407Z,15.38
2022-09-10T09:34:50.367Z,15.37
2022-09-10T09:38:24.189Z,15.36
2022-09-10T09:41:56.154Z,15.38
2022-09-10T09:45:28.994Z,15.41
2022-09-10T09:48:57.203Z,15.53
2022-09-10T09:52:24.182Z,15.55
2022-09-10T09:55:49.609Z,15.61
2022-09-10T09:59:26.904Z,15.62
2022-09-10T10:02:51.403Z,15.71
2022-09-10T10:06:15.176Z,15.77
2022-09-10T10:09:44.376Z,15.80
2022-09-10T10:13:22.204Z,15.65
2022-09-10T10:16:47.713Z,15.60
2022-09-10T10:20:20.723Z,15.63
2022-09-10T10:23:50.849Z,15.68
2022-09-10T10:27:27.446Z,15.69
2022-09-10T10:30:55.442Z,15.73
2022-09-10T10:34:47.940Z,15.68
2022-09-10T10:38:29.850Z,15.55
2022-09-10T10:42:04.994Z,15.50
2022-09-10T10:45:42.595Z,15.52
2022-09-10T10:49:17.328Z,15.58
2022-09-10T10:52:53.406Z,15.62
2022-09-10T10:56:24.045Z,15.61
2022-09-10T10:59:56.424Z,15.54
2022-09-10T11:03:27.679Z,15.45
2022-09-10T11:06:57.698Z,15.42
2022-09-10T11:10:27.622Z,15.42
2022-09-10T11:13:58.831Z,15.52
2022-09-10T11:17:29.410Z,15.60
2022-09-10T11:21:13.987Z,15.69
2022-09-10T11:24:43.494Z,15.76
2022-09-10T11:28:14.955Z,15.83
2022-09-10T11:31:44.165Z,15.89
2022-09-10T11:35:18.187Z,15.94
2022-09-10T11:38:53.432Z,15.99
2022-09-10T11:42:23.285Z,15.94
2022-09-10T11:45:53.108Z,16.02
2022-09-10T11:49:22.395Z,16.02
2022-09-10T11:52:46.059Z,16.12
2022-09-10T11:56:30.220Z,16.18
2022-09-10T12:00:16.831Z,16.21
2022-09-10T12:04:11.839Z,16.25
2022-09-10T12:07:45.146Z,16.30
2022-09-10T12:11:22.025Z,16.30
2022-09-10T12:14:45.242Z,16.33
2022-09-10T12:18:18.388Z,16.26
2022-09-10T12:21:46.569Z,16.19
2022-09-10T12:25:30.475Z,16.20
2022-09-10T12:29:03.416Z,16.24
2022-09-10T12:32:32.009Z,16.26
2022-09-10T12:35:54.976Z,16.22
2022-09-10T12:39:26.125Z,16.19
2022-09-10T12:42:50.109Z,16.21
2022-09-10T12:46:20.490Z,16.24
2022-09-10T12:49:47.804Z,16.20
2022-09-10T12:53:50.088Z,16.26
2022-09-10T12:57:35.775Z,16.24
2022-09-10T13:01:12.903Z,16.27
2022-09-10T13:04:38.079Z,16.31
2022-09-10T13:08:21.825Z,16.30
2022-09-10T13:11:50.013Z,16.30
2022-09-10T13:15:23.216Z,16.32
2022-09-10T13:18:48.734Z,16.32
2022-09-10T13:22:34.114Z,16.25
2022-09-10T13:26:38.649Z,16.24
2022-09-10T13:30:16.774Z,16.20
2022-09-10T13:34:02.219Z,16.19
2022-09-10T13:37:49.377Z,16.21
2022-09-10T13:46:02.457Z,16.22
2022-09-10T13:49:37.180Z,16.23
2022-09-10T13:53:02.189Z,16.14
2022-09-10T13:56:28.012Z,16.14
2022-09-10T13:59:53.743Z,16.11
2022-09-10T14:03:18.545Z,16.13
2022-09-10T14:06:42.837Z,16.15
2022-09-10T14:10:08.974Z,16.10
2022-09-10T14:13:37.456Z,16.11
2022-09-10T14:17:04.716Z,16.15
2022-09-10T14:20:29.725Z,16.15
2022-09-10T14:23:55.762Z,16.13
2022-09-10T14:27:21.391Z,16.02
2022-09-10T14:30:44.539Z,16.06
2022-09-10T14:34:32.601Z,16.07
2022-09-10T14:37:55.455Z,16.01
2022-09-10T14:41:25.274Z,15.95
2022-09-10T14:44:47.925Z,15.95
2022-09-10T14:48:30.752Z,15.91
2022-09-10T14:51:53.282Z,15.86
2022-09-10T14:55:17.486Z,15.85
2022-09-10T14:58:41.578Z,15.86
2022-09-10T15:02:08.427Z,15.80
2022-09-10T15:05:31.794Z,15.68
2022-09-10T15:08:56.501Z,15.70
2022-09-10T15:12:24.284Z,15.66
2022-09-10T15:15:48.705Z,15.62
2022-09-10T15:19:12.444Z,15.58
2022-09-10T15:22:35.405Z,15.57
2022-09-10T15:26:01.648Z,15.50
2022-09-10T15:29:26.855Z,15.46
2022-09-10T15:32:53.392Z,15.44
2022-09-10T15:36:17.069Z,15.37
2022-09-10T15:39:40.060Z,15.33
2022-09-10T15:43:03.507Z,15.26
2022-09-10T15:46:26.188Z,15.22
2022-09-10T15:49:50.961Z,15.18
2022-09-10T15:53:14.430Z,15.11
2022-09-10T15:56:37.900Z,15.05
2022-09-10T16:00:02.192Z,15.00
2022-09-10T16:03:25.778Z,14.96
2022-09-10T16:06:50.305Z,14.87
2022-09-10T16:10:13.316Z,14.80
2022-09-10T16:13:36.082Z,14.72
2022-09-10T16:16:59.247Z,14.63
2022-09-10T16:20:21.999Z,14.54
2022-09-10T16:23:48.957Z,14.44
2022-09-10T16:27:11.817Z,14.32
2022-09-10T16:30:35.487Z,14.18
2022-09-10T16:34:00.496Z,14.05
2022-09-10T16:37:23.966Z,13.92
2022-09-10T16:40:48.677Z,13.81
2022-09-10T16:44:12.960Z,13.51
2022-09-10T16:47:38.281Z,13.46
2022-09-10T16:51:05.740Z,13.33
2022-09-10T16:54:30.654Z,13.18
2022-09-10T16:57:54.937Z,12.90
2022-09-10T17:01:18.362Z,12.82
2022-09-10T17:04:42.316Z,12.68
2022-09-10T17:08:05.154Z,12.53
2022-09-10T17:11:31.702Z,12.35
2022-09-10T17:14:56.500Z,12.25
2022-09-10T17:18:19.259Z,12.12
2022-09-10T17:21:43.325Z,11.97
2022-09-10T17:25:07.571Z,11.84
2022-09-10T17:28:30.487Z,11.70
2022-09-10T17:31:56.108Z,11.57
2022-09-10T17:35:19.517Z,11.44
2022-09-10T17:38:43.879Z,11.32
2022-09-10T17:42:06.561Z,11.21
2022-09-10T17:45:29.493Z,11.08
2022-09-10T17:48:55.312Z,10.97
2022-09-10T17:52:18.275Z,10.82
2022-09-10T17:55:41.131Z,10.75
2022-09-10T17:59:05.938Z,10.67
2022-09-10T18:02:29.330Z,10.55
2022-09-10T18:05:53.933Z,10.48
2022-09-10T18:09:17.065Z,10.40
2022-09-10T18:12:39.824Z,10.30
2022-09-10T18:16:08.049Z,10.21
2022-09-10T18:19:31.477Z,10.12
2022-09-10T18:22:55.968Z,10.04
2022-09-10T18:26:21.487Z,9.95
2022-09-10T18:29:45.338Z,9.86
2022-09-10T18:33:08.538Z,9.76
2022-09-10T18:36:32.358Z,9.64
2022-09-10T18:39:56.542Z,9.54
2022-09-10T18:43:20.487Z,9.39
2022-09-10T18:46:43.405Z,9.32
2022-09-10T18:50:07.744Z,9.21
2022-09-10T18:53:32.568Z,9.15
2022-09-10T18:56:57.650Z,9.06
2022-09-10T19:00:21.233Z,8.98
2022-09-10T19:03:45.833Z,8.90
2022-09-10T19:07:10.221Z,8.83
2022-09-10T19:10:32.971Z,8.78
2022-09-10T19:13:59.318Z,8.74
2022-09-10T19:17:22.430Z,8.68
2022-09-10T19:20:45.369Z,8.60
2022-09-10T19:24:08.497Z,8.56
2022-09-10T19:27:35.695Z,8.51
2022-09-10T19:31:03.406Z,8.45
2022-09-10T19:34:27.000Z,8.39
2022-09-10T19:37:49.962Z,8.35
2022-09-10T19:41:14.866Z,8.31
2022-09-10T19:44:37.723Z,8.23
2022-09-10T19:48:03.961Z,8.17
2022-09-10T19:51:28.053Z,8.12
2022-09-10T19:54:51.006Z,8.05
2022-09-10T19:58:14.277Z,7.96
2022-09-10T20:01:39.875Z,7.92
2022-09-10T20:05:04.806Z,7.89
2022-09-10T20:08:28.896Z,7.83
2022-09-10T20:11:51.546Z,7.78
2022-09-10T20:15:14.609Z,7.72
2022-09-10T20:18:38.764Z,7.66
2022-09-10T20:22:02.983Z,7.61
2022-09-10T20:25:29.367Z,7.57
2022-09-10T20:28:54.542Z,7.50
2022-09-10T20:32:17.497Z,7.43
2022-09-10T20:35:44.350Z,7.36
2022-09-10T20:39:08.945Z,7.31
2022-09-10T20:42:33.550Z,7.26
2022-09-10T20:45:57.787Z,7.21
2022-09-10T20:49:21.206Z,7.16
2022-09-10T20:52:44.777Z,7.12
2022-09-10T20:56:11.937Z,7.06
2022-09-10T20:59:35.202Z,7.02
2022-09-10T21:02:58.274Z,6.93
2022-09-10T21:06:22.144Z,6.92
2022-09-10T21:09:45.208Z,6.91
2022-09-10T21:13:10.020Z,6.83
2022-09-10T21:16:35.222Z,6.81
2022-09-10T21:19:57.977Z,6.79
2022-09-10T21:23:21.147Z,6.77
2022-09-10T21:26:44.826Z,6.75
2022-09-10T21:30:10.507Z,6.72
2022-09-10T21:33:33.811Z,6.67
2022-09-10T21:36:56.570Z,6.60
2022-09-10T21:40:19.223Z,6.53
2022-09-10T21:43:45.359Z,6.51
2022-09-10T21:47:09.852Z,6.48
2022-09-10T21:50:32.503Z,6.43
2022-09-10T21:53:57.513Z,6.43
2022-09-10T21:57:20.392Z,6.41
2022-09-10T22:00:43.025Z,6.35
2022-09-10T22:04:07.722Z,6.27
2022-09-10T22:07:32.396Z,6.28
2022-09-10T22:10:58.455Z,6.22
2022-09-10T22:14:22.482Z,6.13
2022-09-10T22:17:45.497Z,6.14
2022-09-10T22:21:10.490Z,6.12
2022-09-10T22:24:33.401Z,6.08
2022-09-10T22:27:58.504Z,6.02
2022-09-10T22:31:23.658Z,6.00
2022-09-10T22:34:49.403Z,5.99
2022-09-10T22:38:19.160Z,5.95
2022-09-10T22:41:43.123Z,5.93
2022-09-10T22:45:06.802Z,5.89
2022-09-10T22:48:29.854Z,5.85
2022-09-10T22:51:53.324Z,5.79
2022-09-10T22:55:17.927Z,5.78
2022-09-10T22:58:41.534Z,5.78
2022-09-10T23:02:04.510Z,5.78
2022-09-10T23:05:27.518Z,5.79
2022-09-10T23:08:52.524Z,5.77
2022-09-10T23:12:16.825Z,5.74
2022-09-10T23:15:40.291Z,5.72
2022-09-10T23:19:05.401Z,5.69
2022-09-10T23:22:28.416Z,5.69
2022-09-10T23:25:51.327Z,5.65
2022-09-10T23:29:17.631Z,5.61
2022-09-10T23:32:40.619Z,5.59
2022-09-10T23:36:03.994Z,5.53
2022-09-10T23:39:27.567Z,5.47
2022-09-10T23:42:50.626Z,5.46
2022-09-10T23:46:15.364Z,5.46
2022-09-10T23:49:38.420Z,5.38
2022-09-10T23:53:01.661Z,5.38
2022-09-10T23:56:26.423Z,5.31
2022-09-10T23:59:49.729Z,5.23
